createdAt,value
2022-08-05T00:00:50.371Z,25.11
2022-08-05T00:03:18.282Z,25.11
2022-08-05T00:06:04.698Z,25.07
2022-08-05T00:08:36.324Z,25.07
2022-08-05T00:11:20.330Z,25.02
2022-08-05T00:13:53.139Z,24.95
2022-08-05T00:16:36.043Z,24.87
2022-08-05T00:19:05.892Z,24.86
2022-08-05T00:21:35.876Z,24.84
2022-08-05T00:24:10.708Z,24.84
2022-08-05T00:26:39.188Z,24.82
2022-08-05T00:29:18.287Z,24.65
2022-08-05T00:32:11.134Z,24.63
2022-08-05T00:34:56.408Z,24.65
2022-08-05T00:37:22.205Z,24.57
2022-08-05T00:39:58.588Z,24.50
2022-08-05T00:42:34.345Z,24.48
2022-08-05T00:45:02.681Z,24.49
2022-08-05T00:47:52.900Z,24.63
2022-08-05T00:50:18.235Z,24.50
2022-08-05T00:52:48.577Z,24.18
2022-08-05T00:55:19.004Z,24.06
2022-08-05T00:57:55.585Z,24.06
2022-08-05T01:00:27.640Z,24.11
2022-08-05T01:02:55.636Z,24.11
2022-08-05T01:05:23.682Z,24.12
2022-08-05T01:08:40.698Z,24.17
2022-08-05T01:10:52.474Z,24.01
2022-08-05T01:13:27.454Z,24.05
2022-08-05T01:16:26.240Z,24.01
2022-08-05T01:19:02.049Z,23.83
2022-08-05T01:22:18.655Z,23.71
2022-08-05T01:25:00.946Z,23.71
2022-08-05T01:27:55.970Z,23.86
2022-08-05T01:30:34.692Z,23.82
2022-08-05T01:33:08.298Z,23.77
2022-08-05T01:35:50.886Z,23.81
2022-08-05T01:38:24.666Z,23.65
2022-08-05T01:40:59.839Z,23.49
2022-08-05T01:43:33.318Z,23.66
2022-08-05T01:46:07.204Z,23.53
2022-08-05T01:48:49.725Z,23.43
2022-08-05T01:51:19.417Z,23.44
2022-08-05T01:53:57.303Z,23.59
2022-08-05T01:58:10.211Z,23.62
2022-08-05T01:59:24.633Z,23.35
2022-08-05T02:01:55.727Z,23.38
2022-08-05T02:04:29.927Z,23.42
2022-08-05T02:06:58.860Z,23.40
2022-08-05T02:09:27.384Z,23.30
2022-08-05T02:12:10.253Z,23.23
2022-08-05T02:14:47.055Z,23.18
2022-08-05T02:18:28.846Z,23.15
2022-08-05T02:20:20.649Z,23.11
2022-08-05T02:22:56.062Z,23.16
2022-08-05T02:25:33.353Z,23.13
2022-08-05T02:28:08.642Z,23.06
2022-08-05T02:30:51.821Z,23.07
2022-08-05T02:33:24.664Z,23.32
2022-08-05T02:36:09.486Z,23.31
2022-08-05T02:38:38.847Z,23.22
2022-08-05T02:41:17.076Z,23.06
2022-08-05T02:44:02.815Z,23.05
2022-08-05T02:46:44.020Z,23.08
2022-08-05T02:49:35.908Z,23.04
2022-08-05T02:52:08.845Z,23.02
2022-08-05T02:54:41.302Z,22.97
2022-08-05T02:58:11.319Z,22.96
2022-08-05T03:00:03.174Z,23.00
2022-08-05T03:02:37.692Z,23.01
2022-08-05T03:05:08.320Z,23.04
2022-08-05T03:07:59.133Z,23.03
2022-08-05T03:10:27.658Z,22.98
2022-08-05T03:12:55.434Z,22.99
2022-08-05T03:15:24.265Z,22.96
2022-08-05T03:17:55.978Z,22.93
2022-08-05T03:20:26.417Z,22.99
2022-08-05T03:22:57.232Z,22.94
2022-08-05T03:25:32.462Z,22.88
2022-08-05T03:28:18.900Z,22.87
2022-08-05T03:30:49.426Z,22.86
2022-08-05T03:33:19.373Z,22.92
2022-08-05T03:35:48.675Z,22.85
2022-08-05T03:38:17.923Z,22.89
2022-08-05T03:41:08.422Z,22.85
2022-08-05T03:44:09.570Z,22.85
2022-08-05T03:46:29.930Z,22.85
2022-08-05T03:48:59.441Z,22.89
2022-08-05T03:52:39.423Z,22.93
2022-08-05T03:55:52.466Z,22.94
2022-08-05T03:57:34.959Z,22.90
2022-08-05T04:00:15.682Z,22.89
2022-08-05T04:02:57.764Z,22.88
2022-08-05T04:05:33.288Z,22.86
2022-08-05T04:08:03.511Z,22.91
2022-08-05T04:10:38.121Z,23.08
2022-08-05T04:13:06.903Z,23.23
2022-08-05T04:15:36.102Z,23.25
2022-08-05T04:18:06.635Z,23.52
2022-08-05T04:20:36.631Z,23.57
2022-08-05T04:23:04.513Z,23.56
2022-08-05T04:25:56.912Z,23.80
2022-08-05T04:28:20.802Z,24.11
2022-08-05T04:30:58.909Z,24.01
2022-08-05T04:34:18.873Z,24.02
2022-08-05T04:36:45.930Z,24.00
2022-08-05T04:39:07.192Z,23.98
2022-08-05T04:41:37.638Z,23.97
2022-08-05T04:44:08.933Z,24.03
2022-08-05T04:46:37.756Z,23.96
2022-08-05T04:49:05.939Z,24.08
2022-08-05T04:51:41.583Z,24.35
2022-08-05T04:54:10.446Z,24.52
2022-08-05T04:56:40.206Z,24.73
2022-08-05T04:59:22.243Z,24.57
2022-08-05T05:02:07.118Z,24.73
2022-08-05T05:04:49.699Z,25.08
2022-08-05T05:07:24.094Z,24.81
2022-08-05T05:09:57.667Z,24.78
2022-08-05T05:12:27.348Z,24.98
2022-08-05T05:14:55.483Z,24.98
2022-08-05T05:17:24.885Z,24.87
2022-08-05T05:20:15.146Z,24.98
2022-08-05T05:22:44.679Z,24.94
2022-08-05T05:25:16.481Z,24.82
2022-08-05T05:27:53.479Z,24.82
2022-08-05T05:30:30.659Z,24.78
2022-08-05T05:33:08.934Z,24.79
2022-08-05T05:35:44.418Z,24.99
2022-08-05T05:38:14.222Z,25.09
2022-08-05T05:40:49.855Z,24.87
2022-08-05T05:43:27.949Z,24.74
2022-08-05T05:46:13.622Z,24.56
2022-08-05T05:48:44.429Z,24.52
2022-08-05T05:51:15.858Z,24.29
2022-08-05T05:53:54.197Z,24.26
2022-08-05T05:56:33.255Z,24.34
2022-08-05T05:59:05.455Z,24.39
2022-08-05T06:01:37.349Z,24.26
2022-08-05T06:04:07.043Z,24.24
2022-08-05T06:06:35.217Z,24.33
2022-08-05T06:09:05.259Z,24.13
2022-08-05T06:11:33.439Z,24.14
2022-08-05T06:14:02.277Z,24.19
2022-08-05T06:16:33.066Z,24.23
2022-08-05T06:19:07.457Z,24.26
2022-08-05T06:21:38.850Z,24.26
2022-08-05T06:24:14.652Z,24.18
2022-08-05T06:26:51.379Z,24.42
2022-08-05T06:29:25.364Z,24.86
2022-08-05T06:32:21.207Z,24.97
2022-08-05T06:34:56.627Z,24.74
2022-08-05T06:37:57.795Z,25.04
2022-08-05T06:40:18.370Z,25.28
2022-08-05T06:42:52.252Z,25.23
2022-08-05T06:46:02.831Z,25.45
2022-08-05T06:48:47.134Z,25.55
2022-08-05T06:50:57.272Z,25.44
2022-08-05T06:53:28.297Z,25.31
2022-08-05T06:55:58.983Z,25.33
2022-08-05T06:58:34.985Z,25.45
2022-08-05T07:01:06.310Z,25.98
2022-08-05T07:03:35.361Z,25.84
2022-08-05T07:06:06.161Z,25.95
2022-08-05T07:08:43.105Z,26.01
2022-08-05T07:11:17.808Z,26.35
2022-08-05T07:14:08.319Z,25.89
2022-08-05T07:18:08.483Z,25.46
2022-08-05T07:20:16.773Z,25.33
2022-08-05T07:22:29.172Z,25.03
2022-08-05T07:25:09.453Z,24.93
2022-08-05T07:27:58.799Z,24.97
2022-08-05T07:30:33.101Z,25.02
2022-08-05T07:33:05.092Z,25.25
2022-08-05T07:36:04.136Z,25.64
2022-08-05T07:38:32.835Z,25.45
2022-08-05T07:41:35.026Z,25.09
2022-08-05T07:43:56.472Z,24.95
2022-08-05T07:46:26.254Z,24.58
2022-08-05T07:49:01.549Z,24.38
2022-08-05T07:51:40.634Z,24.37
2022-08-05T07:54:10.500Z,24.22
2022-08-05T07:57:01.641Z,24.15
2022-08-05T07:59:38.176Z,23.57
2022-08-05T08:02:10.569Z,23.02
2022-08-05T08:04:44.961Z,22.81
2022-08-05T08:07:13.232Z,22.81
2022-08-05T08:09:40.962Z,22.64
2022-08-05T08:12:19.959Z,22.43
2022-08-05T08:15:02.380Z,22.41
2022-08-05T08:17:31.748Z,22.56
2022-08-05T08:20:43.276Z,22.91
2022-08-05T08:22:52.675Z,23.04
2022-08-05T08:25:34.600Z,22.95
2022-08-05T08:28:18.004Z,22.89
2022-08-05T08:30:49.648Z,22.87
2022-08-05T08:33:17.771Z,23.09
2022-08-05T08:35:53.145Z,23.27
2022-08-05T08:38:37.780Z,23.53
2022-08-05T08:41:14.145Z,23.62
2022-08-05T08:45:19.015Z,23.65
2022-08-05T08:46:33.404Z,23.41
2022-08-05T08:50:05.697Z,23.31
2022-08-05T08:52:05.993Z,23.22
2022-08-05T08:54:42.099Z,23.10
2022-08-05T08:57:13.326Z,23.28
2022-08-05T08:59:47.197Z,23.22
2022-08-05T09:02:19.104Z,23.35
2022-08-05T09:05:16.150Z,23.37
2022-08-05T09:07:39.698Z,23.30
2022-08-05T09:10:27.743Z,23.13
2022-08-05T09:12:56.069Z,23.11
2022-08-05T09:15:24.145Z,23.10
2022-08-05T09:17:54.594Z,23.35
2022-08-05T09:20:37.598Z,23.47
2022-08-05T09:23:10.515Z,23.63
2022-08-05T09:26:03.412Z,23.73
2022-08-05T09:28:34.349Z,23.87
2022-08-05T09:31:43.881Z,23.68
2022-08-05T09:33:56.643Z,23.63
2022-08-05T09:36:27.818Z,23.45
2022-08-05T09:39:03.361Z,23.40
2022-08-05T09:41:58.945Z,23.39
2022-08-05T09:44:37.803Z,23.48
2022-08-05T09:47:12.420Z,23.37
2022-08-05T09:50:00.920Z,23.11
2022-08-05T09:52:32.156Z,22.76
2022-08-05T09:55:55.146Z,22.63
2022-08-05T09:57:54.856Z,22.55
2022-08-05T10:00:26.599Z,22.39
2022-08-05T10:02:58.469Z,22.33
2022-08-05T10:05:32.832Z,22.29
2022-08-05T10:08:34.677Z,22.51
2022-08-05T10:10:54.513Z,22.36
2022-08-05T10:13:45.572Z,22.31
2022-08-05T10:16:32.254Z,22.54
2022-08-05T10:19:08.549Z,23.08
2022-08-05T10:21:40.026Z,23.31
2022-08-05T10:24:10.734Z,23.08
2022-08-05T10:26:48.917Z,23.06
2022-08-05T10:29:23.701Z,23.39
2022-08-05T10:32:55.538Z,23.46
2022-08-05T10:35:00.845Z,23.49
2022-08-05T10:37:41.313Z,23.69
2022-08-05T10:40:27.748Z,24.01
2022-08-05T10:43:02.362Z,24.02
2022-08-05T10:45:41.682Z,23.94
2022-08-05T10:48:38.384Z,24.56
2022-08-05T10:51:23.092Z,25.18
2022-08-05T10:54:05.979Z,25.25
2022-08-05T10:56:53.059Z,25.60
2022-08-05T11:00:04.283Z,25.33
2022-08-05T11:02:34.987Z,25.16
2022-08-05T11:05:06.811Z,24.85
2022-08-05T11:08:02.395Z,24.95
2022-08-05T11:10:27.377Z,25.23
2022-08-05T11:12:56.219Z,25.15
2022-08-05T11:16:01.118Z,25.41
2022-08-05T11:18:30.181Z,25.55
2022-08-05T11:21:02.077Z,25.44
2022-08-05T11:23:56.918Z,24.96
2022-08-05T11:26:29.248Z,25.48
2022-08-05T11:29:12.788Z,25.62
2022-08-05T11:31:56.648Z,25.47
2022-08-05T11:34:39.712Z,25.58
2022-08-05T11:38:29.694Z,25.72
2022-08-05T11:40:03.425Z,25.76
2022-08-05T11:42:37.798Z,25.84
2022-08-05T11:45:23.514Z,25.64
2022-08-05T11:47:58.729Z,25.84
2022-08-05T11:50:27.046Z,26.04
2022-08-05T11:52:57.998Z,26.45
2022-08-05T11:55:32.188Z,26.42
2022-08-05T11:58:09.532Z,26.41
2022-08-05T12:00:41.117Z,26.43
2022-08-05T12:03:23.831Z,26.78
2022-08-05T12:06:06.592Z,27.16
2022-08-05T12:08:50.935Z,27.35
2022-08-05T12:11:20.953Z,27.15
2022-08-05T12:13:59.388Z,26.67
2022-08-05T12:16:30.475Z,27.27
2022-08-05T12:18:58.369Z,27.60
2022-08-05T12:21:29.895Z,27.54
2022-08-05T12:24:05.121Z,26.91
2022-08-05T12:26:36.497Z,27.44
2022-08-05T12:29:09.370Z,28.42
2022-08-05T12:31:48.116Z,28.33
2022-08-05T12:34:25.961Z,27.27
2022-08-05T12:36:55.487Z,27.44
2022-08-05T12:39:34.730Z,27.87
2022-08-05T12:42:10.486Z,27.68
2022-08-05T12:44:45.962Z,28.02
2022-08-05T12:47:27.596Z,27.55
2022-08-05T12:50:03.753Z,27.50
2022-08-05T12:52:39.444Z,27.56
2022-08-05T12:55:22.445Z,27.55
2022-08-05T12:58:51.272Z,27.62
2022-08-05T13:02:00.940Z,27.93
2022-08-05T13:03:39.049Z,27.72
2022-08-05T13:06:14.266Z,27.66
2022-08-05T13:08:49.119Z,27.62
2022-08-05T13:11:59.869Z,27.48
2022-08-05T13:14:19.884Z,27.57
2022-08-05T13:16:56.598Z,27.98
2022-08-05T13:19:26.351Z,28.10
2022-08-05T13:21:56.784Z,27.85
2022-08-05T13:24:27.534Z,27.63
2022-08-05T13:27:17.198Z,27.41
2022-08-05T13:29:59.466Z,27.16
2022-08-05T13:32:42.045Z,27.19
2022-08-05T13:35:14.981Z,27.19
2022-08-05T13:37:55.539Z,26.82
2022-08-05T13:40:37.030Z,26.96
2022-08-05T13:43:11.936Z,27.20
2022-08-05T13:45:43.205Z,27.11
2022-08-05T13:48:58.907Z,27.14
2022-08-05T13:51:06.836Z,26.82
2022-08-05T13:53:35.259Z,26.90
2022-08-05T13:56:18.459Z,26.84
2022-08-05T13:58:52.910Z,27.27
2022-08-05T14:01:25.851Z,28.06
2022-08-05T14:04:26.669Z,28.16
2022-08-05T14:06:58.790Z,27.99
2022-08-05T14:09:46.442Z,28.31
2022-08-05T14:12:18.055Z,28.58
2022-08-05T14:14:46.836Z,28.51
2022-08-05T14:17:17.003Z,28.08
2022-08-05T14:19:55.339Z,27.78
2022-08-05T14:22:24.955Z,27.83
2022-08-05T14:24:58.325Z,27.53
2022-08-05T14:27:28.349Z,27.24
2022-08-05T14:29:56.644Z,27.03
2022-08-05T14:32:27.980Z,27.04
2022-08-05T14:34:57.671Z,26.76
2022-08-05T14:37:45.234Z,26.70
2022-08-05T14:40:14.275Z,26.45
2022-08-05T14:42:44.726Z,26.39
2022-08-05T14:45:13.376Z,26.14
2022-08-05T14:48:04.271Z,26.05
2022-08-05T14:50:32.187Z,25.92
2022-08-05T14:53:00.516Z,25.75
2022-08-05T14:55:39.060Z,25.66
2022-08-05T14:58:12.032Z,25.66
2022-08-05T15:00:58.840Z,25.54
2022-08-05T15:03:33.020Z,25.56
2022-08-05T15:06:08.098Z,25.52
2022-08-05T15:08:59.047Z,25.34
2022-08-05T15:11:51.276Z,25.40
2022-08-05T15:14:33.523Z,25.44
2022-08-05T15:17:05.446Z,25.36
2022-08-05T15:19:49.018Z,25.19
2022-08-05T15:22:18.443Z,25.04
2022-08-05T15:24:49.263Z,24.91
2022-08-05T15:27:18.204Z,24.88
2022-08-05T15:29:47.776Z,24.79
2022-08-05T15:32:16.800Z,24.65
2022-08-05T15:34:44.692Z,24.71
2022-08-05T15:37:14.783Z,24.77
2022-08-05T15:40:58.832Z,24.76
2022-08-05T15:42:54.786Z,24.73
2022-08-05T15:45:38.863Z,24.64
2022-08-05T15:48:07.075Z,24.53
2022-08-05T15:50:34.920Z,24.43
2022-08-05T15:53:05.635Z,24.47
2022-08-05T15:56:02.858Z,24.32
2022-08-05T15:58:23.473Z,24.42
2022-08-05T16:01:04.324Z,24.53
2022-08-05T16:03:41.171Z,24.63
2022-08-05T16:06:14.182Z,24.46
2022-08-05T16:08:53.759Z,24.44
2022-08-05T16:11:43.098Z,24.34
2022-08-05T16:14:17.111Z,24.34
2022-08-05T16:16:46.100Z,24.03
2022-08-05T16:19:25.669Z,23.94
2022-08-05T16:22:03.300Z,23.83
2022-08-05T16:24:41.394Z,23.98
2022-08-05T16:27:47.295Z,23.76
2022-08-05T16:30:23.230Z,23.53
2022-08-05T16:32:51.569Z,23.44
2022-08-05T16:35:27.942Z,23.35
2022-08-05T16:38:16.828Z,23.15
2022-08-05T16:40:47.654Z,23.15
2022-08-05T16:43:23.704Z,22.88
2022-08-05T16:46:06.100Z,22.66
2022-08-05T16:48:36.577Z,22.39
2022-08-05T16:51:09.894Z,22.33
2022-08-05T16:54:04.249Z,22.11
2022-08-05T16:56:27.595Z,22.03
2022-08-05T16:59:01.450Z,22.26
2022-08-05T17:01:54.430Z,22.23
2022-08-05T17:04:26.576Z,22.11
2022-08-05T17:07:00.006Z,21.71
2022-08-05T17:09:28.536Z,21.10
2022-08-05T17:11:59.460Z,21.18
2022-08-05T17:14:36.796Z,21.10
2022-08-05T17:17:06.171Z,21.30
2022-08-05T17:19:34.049Z,21.28
2022-08-05T17:22:01.851Z,20.92
2022-08-05T17:24:38.442Z,20.78
2022-08-05T17:27:08.300Z,20.66
2022-08-05T17:29:41.588Z,20.28
2022-08-05T17:32:11.282Z,18.30
2022-08-05T17:34:44.290Z,18.00
2022-08-05T17:37:27.358Z,17.89
2022-08-05T17:40:00.199Z,17.86
2022-08-05T17:42:31.838Z,18.13
2022-08-05T17:45:09.865Z,18.03
2022-08-05T17:47:53.587Z,17.90
2022-08-05T17:50:29.996Z,17.85
2022-08-05T17:53:00.635Z,17.83
2022-08-05T17:55:37.931Z,17.83
2022-08-05T17:58:13.546Z,18.27
2022-08-05T18:00:47.069Z,18.08
2022-08-05T18:03:56.476Z,18.04
2022-08-05T18:06:11.172Z,18.19
2022-08-05T18:08:40.653Z,18.05
2022-08-05T18:11:24.419Z,18.33
2022-08-05T18:14:00.964Z,17.92
2022-08-05T18:16:51.219Z,17.98
2022-08-05T18:19:22.654Z,18.35
2022-08-05T18:22:08.832Z,18.42
2022-08-05T18:24:39.561Z,18.33
2022-08-05T18:27:12.651Z,18.38
2022-08-05T18:29:51.997Z,18.16
2022-08-05T18:32:28.369Z,18.00
2022-08-05T18:34:57.916Z,18.06
2022-08-05T18:37:34.440Z,18.07
2022-08-05T18:40:34.519Z,18.12
2022-08-05T18:42:57.502Z,17.91
2022-08-05T18:45:25.340Z,18.16
2022-08-05T18:48:11.990Z,17.97
2022-08-05T18:52:02.621Z,18.15
2022-08-05T18:54:07.341Z,17.71
2022-08-05T18:56:37.069Z,17.78
2022-08-05T18:59:43.522Z,17.81
2022-08-05T19:01:56.849Z,17.65
2022-08-05T19:04:29.266Z,17.46
2022-08-05T19:06:57.503Z,17.50
2022-08-05T19:09:25.252Z,17.65
2022-08-05T19:12:00.129Z,17.57
2022-08-05T19:14:53.465Z,17.91
2022-08-05T19:17:17.559Z,17.63
2022-08-05T19:19:50.258Z,17.52
2022-08-05T19:22:18.311Z,17.55
2022-08-05T19:24:54.315Z,17.58
2022-08-05T19:27:30.130Z,17.74
2022-08-05T19:29:58.814Z,17.58
2022-08-05T19:32:28.405Z,18.03
2022-08-05T19:34:58.040Z,17.65
2022-08-05T19:37:35.015Z,17.76
2022-08-05T19:40:15.045Z,17.78
2022-08-05T19:43:00.678Z,17.43
2022-08-05T19:45:33.139Z,17.24
2022-08-05T19:48:05.329Z,17.34
2022-08-05T19:50:34.960Z,17.44
2022-08-05T19:53:09.462Z,17.35
2022-08-05T19:56:13.768Z,17.39
2022-08-05T19:58:28.732Z,17.55
2022-08-05T20:00:57.960Z,17.53
2022-08-05T20:03:27.353Z,17.51
2022-08-05T20:06:15.286Z,17.17
2022-08-05T20:08:47.445Z,17.23
2022-08-05T20:11:17.911Z,17.56
2022-08-05T20:13:59.123Z,17.50
2022-08-05T20:16:34.988Z,17.44
2022-08-05T20:19:03.528Z,17.51
2022-08-05T20:21:32.663Z,17.20
2022-08-05T20:24:01.073Z,17.06
2022-08-05T20:26:31.389Z,17.06
2022-08-05T20:29:00.748Z,17.14
2022-08-05T20:31:42.774Z,17.03
2022-08-05T20:34:20.750Z,16.93
2022-08-05T20:36:53.094Z,16.92
2022-08-05T20:39:23.624Z,17.38
2022-08-05T20:41:51.478Z,17.04
2022-08-05T20:44:29.389Z,16.96
2022-08-05T20:46:59.366Z,16.84
2022-08-05T20:49:27.546Z,16.74
2022-08-05T20:51:58.120Z,16.89
2022-08-05T20:54:43.009Z,16.82
2022-08-05T20:57:14.324Z,16.76
2022-08-05T21:00:11.107Z,16.77
2022-08-05T21:02:30.618Z,16.97
2022-08-05T21:04:58.558Z,17.14
2022-08-05T21:07:50.501Z,17.13
2022-08-05T21:10:19.393Z,16.96
2022-08-05T21:12:57.953Z,16.93
2022-08-05T21:15:35.474Z,16.81
2022-08-05T21:18:03.891Z,17.16
2022-08-05T21:20:33.577Z,16.91
2022-08-05T21:23:03.697Z,16.80
2022-08-05T21:25:34.033Z,16.83
2022-08-05T21:28:02.665Z,16.93
2022-08-05T21:30:31.379Z,16.86
2022-08-05T21:32:59.903Z,16.95
2022-08-05T21:35:43.822Z,16.88
2022-08-05T21:38:20.037Z,16.93
2022-08-05T21:40:48.033Z,17.05
2022-08-05T21:43:24.205Z,17.06
2022-08-05T21:45:57.867Z,16.97
2022-08-05T21:48:31.701Z,16.83
2022-08-05T21:50:59.774Z,16.85
2022-08-05T21:53:28.896Z,16.87
2022-08-05T21:56:09.790Z,16.69
2022-08-05T21:58:56.948Z,16.69
2022-08-05T22:01:26.208Z,16.57
2022-08-05T22:03:54.285Z,16.61
2022-08-05T22:06:34.790Z,16.58
2022-08-05T22:09:13.647Z,16.62
2022-08-05T22:11:46.830Z,16.63
2022-08-05T22:14:35.613Z,16.57
2022-08-05T22:17:06.730Z,16.49
2022-08-05T22:20:01.158Z,16.48
2022-08-05T22:22:28.144Z,16.40
2022-08-05T22:25:21.313Z,16.34
2022-08-05T22:28:09.825Z,16.37
2022-08-05T22:30:44.270Z,16.43
2022-08-05T22:33:57.080Z,16.27
2022-08-05T22:36:15.032Z,16.29
2022-08-05T22:38:48.518Z,16.25
2022-08-05T22:42:04.164Z,16.24
2022-08-05T22:44:08.369Z,16.28
2022-08-05T22:46:39.499Z,16.17
2022-08-05T22:49:23.203Z,16.12
2022-08-05T22:52:07.105Z,16.16
2022-08-05T22:54:36.868Z,16.11
2022-08-05T22:57:06.368Z,15.97
2022-08-05T22:59:46.467Z,16.08
2022-08-05T23:02:18.820Z,16.05
2022-08-05T23:04:58.334Z,15.91
2022-08-05T23:07:30.403Z,15.88
2022-08-05T23:10:01.751Z,16.05
2022-08-05T23:12:33.232Z,15.83
2022-08-05T23:15:03.634Z,15.84
2022-08-05T23:17:34.937Z,15.78
2022-08-05T23:20:17.941Z,15.68
2022-08-05T23:22:47.634Z,15.77
2022-08-05T23:25:51.588Z,15.65
2022-08-05T23:28:07.865Z,15.61
2022-08-05T23:30:39.660Z,15.71
2022-08-05T23:33:21.819Z,15.67
2022-08-05T23:35:56.201Z,15.59
2022-08-05T23:38:25.936Z,15.50
2022-08-05T23:40:54.692Z,15.56
2022-08-05T23:43:49.685Z,15.50
2022-08-05T23:46:19.891Z,15.42
2022-08-05T23:49:00.699Z,15.38
2022-08-05T23:51:53.523Z,15.43
2022-08-05T23:54:25.860Z,15.37
2022-08-05T23:56:55.454Z,15.29
2022-08-05T23:59:37.355Z,15.16
